sensor_id;sensor_type;location;lat;lon;timestamp;P1;durP1;ratioP1;P2;durP2;ratioP2
69404;SDS011;57084;52.046;5.632;2022-10-19T00:00:00;6.8;;;2.0;;
69404;SDS011;57084;52.046;5.632;2022-10-19T00:01:01;6.8;;;2.0;;
69404;SDS011;57084;52.046;5.632;2022-10-19T00:02:00;8.2;;;2.4;;
69404;SDS011;57084;52.046;5.632;2022-10-19T00:03:00;8.2;;;2.4;;
69404;SDS011;57084;52.046;5.632;2022-10-19T00:04:00;8.2;;;2.4;;
69404;SDS011;57084;52.046;5.632;2022-10-19T00:05:00;8.2;;;2.4;;
69404;SDS011;57084;52.046;5.632;2022-10-19T00:06:08;8.2;;;2.4;;
69404;SDS011;57084;52.046;5.632;2022-10-19T00:07:00;10.8;;;2.7;;
69404;SDS011;57084;52.046;5.632;2022-10-19T00:08:00;10.8;;;2.7;;
69404;SDS011;57084;52.046;5.632;2022-10-19T00:09:02;10.8;;;2.7;;
69404;SDS011;57084;52.046;5.632;2022-10-19T00:10:00;10.8;;;2.7;;
69404;SDS011;57084;52.046;5.632;2022-10-19T00:11:00;10.8;;;2.7;;
69404;SDS011;57084;52.046;5.632;2022-10-19T00:12:00;5.5;;;2.2;;
69404;SDS011;57084;52.046;5.632;2022-10-19T00:13:00;5.5;;;2.2;;
69404;SDS011;57084;52.046;5.632;2022-10-19T00:14:00;5.5;;;2.2;;
69404;SDS011;57084;52.046;5.632;2022-10-19T00:15:00;5.5;;;2.2;;
69404;SDS011;57084;52.046;5.632;2022-10-19T00:16:00;5.5;;;2.2;;
69404;SDS011;57084;52.046;5.632;2022-10-19T00:17:00;7.0;;;2.0;;
69404;SDS011;57084;52.046;5.632;2022-10-19T00:18:00;7.0;;;2.0;;
69404;SDS011;57084;52.046;5.632;2022-10-19T00:19:03;7.0;;;2.0;;
69404;SDS011;57084;52.046;5.632;2022-10-19T00:20:00;7.0;;;2.0;;
69404;SDS011;57084;52.046;5.632;2022-10-19T00:21:03;7.0;;;2.0;;
69404;SDS011;57084;52.046;5.632;2022-10-19T00:22:00;7.4;;;2.3;;
69404;SDS011;57084;52.046;5.632;2022-10-19T00:23:00;7.4;;;2.3;;
69404;SDS011;57084;52.046;5.632;2022-10-19T00:24:00;7.4;;;2.3;;
69404;SDS011;57084;52.046;5.632;2022-10-19T00:25:00;7.4;;;2.3;;
69404;SDS011;57084;52.046;5.632;2022-10-19T00:26:00;7.4;;;2.3;;
69404;SDS011;57084;52.046;5.632;2022-10-19T00:27:00;9.0;;;2.5;;
69404;SDS011;57084;52.046;5.632;2022-10-19T00:28:00;9.0;;;2.5;;
69404;SDS011;57084;52.046;5.632;2022-10-19T00:29:00;9.0;;;2.5;;
69404;SDS011;57084;52.046;5.632;2022-10-19T00:30:00;9.0;;;2.5;;
69404;SDS011;57084;52.046;5.632;2022-10-19T00:31:02;9.0;;;2.5;;
69404;SDS011;57084;52.046;5.632;2022-10-19T00:32:00;6.0;;;2.1;;
69404;SDS011;57084;52.046;5.632;2022-10-19T00:33:00;6.0;;;2.1;;
69404;SDS011;57084;52.046;5.632;2022-10-19T00:34:00;6.0;;;2.1;;
69404;SDS011;57084;52.046;5.632;2022-10-19T00:35:00;6.0;;;2.1;;
69404;SDS011;57084;52.046;5.632;2022-10-19T00:36:00;6.0;;;2.1;;
69404;SDS011;57084;52.046;5.632;2022-10-19T00:37:00;9.0;;;2.4;;
69404;SDS011;57084;52.046;5.632;2022-10-19T00:38:00;9.0;;;2.4;;
69404;SDS011;57084;52.046;5.632;2022-10-19T00:39:00;9.0;;;2.4;;
69404;SDS011;57084;52.046;5.632;2022-10-19T00:40:00;9.0;;;2.4;;
69404;SDS011;57084;52.046;5.632;2022-10-19T00:41:01;9.0;;;2.4;;
69404;SDS011;57084;52.046;5.632;2022-10-19T00:42:00;9.0;;;2.4;;
69404;SDS011;57084;52.046;5.632;2022-10-19T00:43:00;7.6;;;2.5;;
69404;SDS011;57084;52.046;5.632;2022-10-19T00:44:02;7.6;;;2.5;;
69404;SDS011;57084;52.046;5.632;2022-10-19T00:45:05;7.6;;;2.5;;
69404;SDS011;57084;52.046;5.632;2022-10-19T00:46:00;7.6;;;2.5;;
69404;SDS011;57084;52.046;5.632;2022-10-19T00:47:03;7.6;;;2.5;;
69404;SDS011;57084;52.046;5.632;2022-10-19T00:48:00;7.6;;;2.2;;
69404;SDS011;57084;52.046;5.632;2022-10-19T00:49:02;7.6;;;2.2;;
69404;SDS011;57084;52.046;5.632;2022-10-19T00:50:00;7.6;;;2.2;;
69404;SDS011;57084;52.046;5.632;2022-10-19T00:51:00;7.6;;;2.2;;
69404;SDS011;57084;52.046;5.632;2022-10-19T00:52:02;7.6;;;2.2;;
69404;SDS011;57084;52.046;5.632;2022-10-19T00:53:00;5.6;;;2.3;;
69404;SDS011;57084;52.046;5.632;2022-10-19T00:54:01;5.6;;;2.3;;
69404;SDS011;57084;52.046;5.632;2022-10-19T00:55:01;5.6;;;2.3;;
69404;SDS011;57084;52.046;5.632;2022-10-19T00:56:05;5.6;;;2.3;;
69404;SDS011;57084;52.046;5.632;2022-10-19T00:57:00;5.6;;;2.3;;
69404;SDS011;57084;52.046;5.632;2022-10-19T00:58:01;7.2;;;2.4;;
69404;SDS011;57084;52.046;5.632;2022-10-19T00:59:01;7.2;;;2.4;;
69404;SDS011;57084;52.046;5.632;2022-10-19T01:00:03;7.2;;;2.4;;
69404;SDS011;57084;52.046;5.632;2022-10-19T01:01:02;7.2;;;2.4;;
69404;SDS011;57084;52.046;5.632;2022-10-19T01:02:02;7.2;;;2.4;;
69404;SDS011;57084;52.046;5.632;2022-10-19T01:03:00;7.3;;;2.3;;
69404;SDS011;57084;52.046;5.632;2022-10-19T01:04:00;7.3;;;2.3;;
69404;SDS011;57084;52.046;5.632;2022-10-19T01:05:00;7.3;;;2.3;;
69404;SDS011;57084;52.046;5.632;2022-10-19T01:06:00;7.3;;;2.3;;
69404;SDS011;57084;52.046;5.632;2022-10-19T01:07:00;7.3;;;2.3;;
69404;SDS011;57084;52.046;5.632;2022-10-19T01:08:00;10.8;;;2.3;;
69404;SDS011;57084;52.046;5.632;2022-10-19T01:09:00;10.8;;;2.3;;
69404;SDS011;57084;52.046;5.632;2022-10-19T01:10:00;10.8;;;2.3;;
69404;SDS011;57084;52.046;5.632;2022-10-19T01:11:07;10.8;;;2.3;;
69404;SDS011;57084;52.046;5.632;2022-10-19T01:12:05;10.8;;;2.3;;
69404;SDS011;57084;52.046;5.632;2022-10-19T01:13:10;7.6;;;2.4;;
69404;SDS011;57084;52.046;5.632;2022-10-19T01:14:11;7.6;;;2.4;;
69404;SDS011;57084;52.046;5.632;2022-10-19T01:15:05;7.6;;;2.4;;
69404;SDS011;57084;52.046;5.632;2022-10-19T01:16:03;7.6;;;2.4;;
69404;SDS011;57084;52.046;5.632;2022-10-19T01:17:07;7.6;;;2.4;;
69404;SDS011;57084;52.046;5.632;2022-10-19T01:18:04;6.8;;;2.1;;
69404;SDS011;57084;52.046;5.632;2022-10-19T01:19:05;6.8;;;2.1;;
69404;SDS011;57084;52.046;5.632;2022-10-19T01:20:21;6.8;;;2.1;;
69404;SDS011;57084;52.046;5.632;2022-10-19T01:21:26;6.8;;;2.1;;
69404;SDS011;57084;52.046;5.632;2022-10-19T01:22:06;6.8;;;2.1;;
69404;SDS011;57084;52.046;5.632;2022-10-19T01:23:17;7.6;;;2.3;;
69404;SDS011;57084;52.046;5.632;2022-10-19T01:24:10;7.6;;;2.3;;
69404;SDS011;57084;52.046;5.632;2022-10-19T01:25:09;7.6;;;2.3;;
69404;SDS011;57084;52.046;5.632;2022-10-19T01:26:07;7.6;;;2.3;;
69404;SDS011;57084;52.046;5.632;2022-10-19T01:27:14;7.6;;;2.3;;
69404;SDS011;57084;52.046;5.632;2022-10-19T01:28:10;7.1;;;2.2;;
69404;SDS011;57084;52.046;5.632;2022-10-19T01:29:08;7.1;;;2.2;;
69404;SDS011;57084;52.046;5.632;2022-10-19T01:30:02;7.1;;;2.2;;
69404;SDS011;57084;52.046;5.632;2022-10-19T01:31:02;7.1;;;2.2;;
69404;SDS011;57084;52.046;5.632;2022-10-19T01:32:04;7.1;;;2.2;;
69404;SDS011;57084;52.046;5.632;2022-10-19T01:33:07;11.3;;;2.1;;
69404;SDS011;57084;52.046;5.632;2022-10-19T01:34:05;11.3;;;2.1;;
69404;SDS011;57084;52.046;5.632;2022-10-19T01:35:05;11.3;;;2.1;;
69404;SDS011;57084;52.046;5.632;2022-10-19T01:36:07;11.3;;;2.1;;
69404;SDS011;57084;52.046;5.632;2022-10-19T01:37:04;11.3;;;2.1;;
69404;SDS011;57084;52.046;5.632;2022-10-19T01:38:11;5.3;;;1.9;;
69404;SDS011;57084;52.046;5.632;2022-10-19T01:39:02;5.3;;;1.9;;
69404;SDS011;57084;52.046;5.632;2022-10-19T01:40:04;5.3;;;1.9;;
69404;SDS011;57084;52.046;5.632;2022-10-19T01:41:08;5.3;;;1.9;;
69404;SDS011;57084;52.046;5.632;2022-10-19T01:42:05;5.3;;;1.9;;
69404;SDS011;57084;52.046;5.632;2022-10-19T01:43:03;5.2;;;1.9;;
69404;SDS011;57084;52.046;5.632;2022-10-19T01:44:05;5.2;;;1.9;;
69404;SDS011;57084;52.046;5.632;2022-10-19T01:45:03;5.2;;;1.9;;
69404;SDS011;57084;52.046;5.632;2022-10-19T01:46:05;5.2;;;1.9;;
69404;SDS011;57084;52.046;5.632;2022-10-19T01:47:03;5.2;;;1.9;;
69404;SDS011;57084;52.046;5.632;2022-10-19T01:48:03;9.3;;;2.2;;
69404;SDS011;57084;52.046;5.632;2022-10-19T01:49:05;9.3;;;2.2;;
69404;SDS011;57084;52.046;5.632;2022-10-19T01:50:04;9.3;;;2.2;;
69404;SDS011;57084;52.046;5.632;2022-10-19T01:51:03;9.3;;;2.2;;
69404;SDS011;57084;52.046;5.632;2022-10-19T01:52:03;9.3;;;2.2;;
69404;SDS011;57084;52.046;5.632;2022-10-19T01:53:03;6.9;;;2.3;;
69404;SDS011;57084;52.046;5.632;2022-10-19T01:54:04;6.9;;;2.3;;
69404;SDS011;57084;52.046;5.632;2022-10-19T01:55:01;6.9;;;2.3;;
69404;SDS011;57084;52.046;5.632;2022-10-19T01:56:01;6.9;;;2.3;;
69404;SDS011;57084;52.046;5.632;2022-10-19T01:57:01;6.9;;;2.3;;
69404;SDS011;57084;52.046;5.632;2022-10-19T01:58:02;8.7;;;3.4;;
69404;SDS011;57084;52.046;5.632;2022-10-19T01:59:03;8.7;;;3.4;;
69404;SDS011;57084;52.046;5.632;2022-10-19T02:00:00;8.7;;;3.4;;
69404;SDS011;57084;52.046;5.632;2022-10-19T02:01:03;8.7;;;3.4;;
69404;SDS011;57084;52.046;5.632;2022-10-19T02:02:02;8.7;;;3.4;;
69404;SDS011;57084;52.046;5.632;2022-10-19T02:03:02;9.1;;;4.0;;
69404;SDS011;57084;52.046;5.632;2022-10-19T02:04:01;9.1;;;4.0;;
69404;SDS011;57084;52.046;5.632;2022-10-19T02:05:01;9.1;;;4.0;;
69404;SDS011;57084;52.046;5.632;2022-10-19T02:06:03;9.1;;;4.0;;
69404;SDS011;57084;52.046;5.632;2022-10-19T02:07:01;9.1;;;4.0;;
69404;SDS011;57084;52.046;5.632;2022-10-19T02:08:04;9.2;;;4.1;;
69404;SDS011;57084;52.046;5.632;2022-10-19T02:09:00;9.2;;;4.1;;
69404;SDS011;57084;52.046;5.632;2022-10-19T02:10:00;9.2;;;4.1;;
69404;SDS011;57084;52.046;5.632;2022-10-19T02:11:00;9.2;;;4.1;;
69404;SDS011;57084;52.046;5.632;2022-10-19T02:12:02;9.2;;;4.1;;
69404;SDS011;57084;52.046;5.632;2022-10-19T02:13:01;11.5;;;4.5;;
69404;SDS011;57084;52.046;5.632;2022-10-19T02:14:04;11.5;;;4.5;;
69404;SDS011;57084;52.046;5.632;2022-10-19T02:15:04;11.5;;;4.5;;
69404;SDS011;57084;52.046;5.632;2022-10-19T02:16:03;11.5;;;4.5;;
69404;SDS011;57084;52.046;5.632;2022-10-19T02:17:02;11.5;;;4.5;;
69404;SDS011;57084;52.046;5.632;2022-10-19T02:18:01;10.0;;;4.4;;
69404;SDS011;57084;52.046;5.632;2022-10-19T02:19:01;10.0;;;4.4;;
69404;SDS011;57084;52.046;5.632;2022-10-19T02:20:00;10.0;;;4.4;;
69404;SDS011;57084;52.046;5.632;2022-10-19T02:21:01;10.0;;;4.4;;
69404;SDS011;57084;52.046;5.632;2022-10-19T02:22:00;10.0;;;4.4;;
69404;SDS011;57084;52.046;5.632;2022-10-19T02:23:02;16.3;;;4.9;;
69404;SDS011;57084;52.046;5.632;2022-10-19T02:24:00;16.3;;;4.9;;
69404;SDS011;57084;52.046;5.632;2022-10-19T02:25:00;16.3;;;4.9;;
69404;SDS011;57084;52.046;5.632;2022-10-19T02:26:00;16.3;;;4.9;;
69404;SDS011;57084;52.046;5.632;2022-10-19T02:27:00;16.3;;;4.9;;
69404;SDS011;57084;52.046;5.632;2022-10-19T02:28:01;11.4;;;4.7;;
69404;SDS011;57084;52.046;5.632;2022-10-19T02:29:00;11.4;;;4.7;;
69404;SDS011;57084;52.046;5.632;2022-10-19T02:30:00;11.4;;;4.7;;
69404;SDS011;57084;52.046;5.632;2022-10-19T02:31:00;11.4;;;4.7;;
69404;SDS011;57084;52.046;5.632;2022-10-19T02:32:00;11.4;;;4.7;;
69404;SDS011;57084;52.046;5.632;2022-10-19T02:33:00;15.2;;;5.4;;
69404;SDS011;57084;52.046;5.632;2022-10-19T02:34:00;15.2;;;5.4;;
69404;SDS011;57084;52.046;5.632;2022-10-19T02:35:00;15.2;;;5.4;;
69404;SDS011;57084;52.046;5.632;2022-10-19T02:36:00;15.2;;;5.4;;
69404;SDS011;57084;52.046;5.632;2022-10-19T02:37:00;15.2;;;5.4;;
69404;SDS011;57084;52.046;5.632;2022-10-19T02:38:00;10.6;;;5.1;;
69404;SDS011;57084;52.046;5.632;2022-10-19T02:39:00;10.6;;;5.1;;
69404;SDS011;57084;52.046;5.632;2022-10-19T02:40:00;10.6;;;5.1;;
69404;SDS011;57084;52.046;5.632;2022-10-19T02:41:05;10.6;;;5.1;;
69404;SDS011;57084;52.046;5.632;2022-10-19T02:42:03;10.6;;;5.1;;
69404;SDS011;57084;52.046;5.632;2022-10-19T02:43:03;8.8;;;4.6;;
69404;SDS011;57084;52.046;5.632;2022-10-19T02:44:04;8.8;;;4.6;;
69404;SDS011;57084;52.046;5.632;2022-10-19T02:45:06;8.8;;;4.6;;
69404;SDS011;57084;52.046;5.632;2022-10-19T02:46:03;8.8;;;4.6;;
69404;SDS011;57084;52.046;5.632;2022-10-19T02:47:03;8.8;;;4.6;;
69404;SDS011;57084;52.046;5.632;2022-10-19T02:48:03;8.8;;;4.6;;
69404;SDS011;57084;52.046;5.632;2022-10-19T02:49:00;9.6;;;3.5;;
69404;SDS011;57084;52.046;5.632;2022-10-19T02:50:00;9.6;;;3.5;;
69404;SDS011;57084;52.046;5.632;2022-10-19T02:51:00;9.6;;;3.5;;
69404;SDS011;57084;52.046;5.632;2022-10-19T02:52:02;9.6;;;3.5;;
69404;SDS011;57084;52.046;5.632;2022-10-19T02:53:00;9.6;;;3.5;;
69404;SDS011;57084;52.046;5.632;2022-10-19T02:54:00;9.9;;;2.6;;
69404;SDS011;57084;52.046;5.632;2022-10-19T02:55:00;9.9;;;2.6;;
69404;SDS011;57084;52.046;5.632;2022-10-19T02:56:00;9.9;;;2.6;;
69404;SDS011;57084;52.046;5.632;2022-10-19T02:57:00;9.9;;;2.6;;
69404;SDS011;57084;52.046;5.632;2022-10-19T02:58:00;9.9;;;2.6;;
69404;SDS011;57084;52.046;5.632;2022-10-19T02:59:00;6.9;;;2.6;;
69404;SDS011;57084;52.046;5.632;2022-10-19T03:00:00;6.9;;;2.6;;
69404;SDS011;57084;52.046;5.632;2022-10-19T03:01:00;6.9;;;2.6;;
69404;SDS011;57084;52.046;5.632;2022-10-19T03:02:00;6.9;;;2.6;;
69404;SDS011;57084;52.046;5.632;2022-10-19T03:03:00;6.9;;;2.6;;
69404;SDS011;57084;52.046;5.632;2022-10-19T03:04:00;5.1;;;2.2;;
69404;SDS011;57084;52.046;5.632;2022-10-19T03:05:00;5.1;;;2.2;;
69404;SDS011;57084;52.046;5.632;2022-10-19T03:06:00;5.1;;;2.2;;
69404;SDS011;57084;52.046;5.632;2022-10-19T03:07:00;5.1;;;2.2;;
69404;SDS011;57084;52.046;5.632;2022-10-19T03:08:00;5.1;;;2.2;;
69404;SDS011;57084;52.046;5.632;2022-10-19T03:09:00;8.4;;;2.3;;
69404;SDS011;57084;52.046;5.632;2022-10-19T03:10:00;8.4;;;2.3;;
69404;SDS011;57084;52.046;5.632;2022-10-19T03:11:00;8.4;;;2.3;;
69404;SDS011;57084;52.046;5.632;2022-10-19T03:12:00;8.4;;;2.3;;
69404;SDS011;57084;52.046;5.632;2022-10-19T03:13:00;8.4;;;2.3;;
69404;SDS011;57084;52.046;5.632;2022-10-19T03:14:00;4.0;;;1.9;;
69404;SDS011;57084;52.046;5.632;2022-10-19T03:15:00;4.0;;;1.9;;
69404;SDS011;57084;52.046;5.632;2022-10-19T03:16:05;4.0;;;1.9;;
69404;SDS011;57084;52.046;5.632;2022-10-19T03:17:00;4.0;;;1.9;;
69404;SDS011;57084;52.046;5.632;2022-10-19T03:18:00;4.0;;;1.9;;
69404;SDS011;57084;52.046;5.632;2022-10-19T03:19:00;9.3;;;1.9;;
69404;SDS011;57084;52.046;5.632;2022-10-19T03:20:00;9.3;;;1.9;;
69404;SDS011;57084;52.046;5.632;2022-10-19T03:21:01;9.3;;;1.9;;
69404;SDS011;57084;52.046;5.632;2022-10-19T03:22:00;9.3;;;1.9;;
69404;SDS011;57084;52.046;5.632;2022-10-19T03:23:00;9.3;;;1.9;;
69404;SDS011;57084;52.046;5.632;2022-10-19T03:24:00;4.4;;;1.9;;
69404;SDS011;57084;52.046;5.632;2022-10-19T03:25:00;4.4;;;1.9;;
69404;SDS011;57084;52.046;5.632;2022-10-19T03:26:00;4.4;;;1.9;;
69404;SDS011;57084;52.046;5.632;2022-10-19T03:27:00;4.4;;;1.9;;
69404;SDS011;57084;52.046;5.632;2022-10-19T03:28:00;4.4;;;1.9;;
69404;SDS011;57084;52.046;5.632;2022-10-19T03:29:00;5.1;;;1.7;;
69404;SDS011;57084;52.046;5.632;2022-10-19T03:30:00;5.1;;;1.7;;
69404;SDS011;57084;52.046;5.632;2022-10-19T03:31:00;5.1;;;1.7;;
69404;SDS011;57084;52.046;5.632;2022-10-19T03:32:00;5.1;;;1.7;;
69404;SDS011;57084;52.046;5.632;2022-10-19T03:33:00;5.1;;;1.7;;
69404;SDS011;57084;52.046;5.632;2022-10-19T03:34:00;5.2;;;1.6;;
69404;SDS011;57084;52.046;5.632;2022-10-19T03:35:00;5.2;;;1.6;;
69404;SDS011;57084;52.046;5.632;2022-10-19T03:36:11;5.2;;;1.6;;
69404;SDS011;57084;52.046;5.632;2022-10-19T03:37:00;5.2;;;1.6;;
69404;SDS011;57084;52.046;5.632;2022-10-19T03:38:00;5.2;;;1.6;;
69404;SDS011;57084;52.046;5.632;2022-10-19T03:39:03;5.0;;;1.7;;
69404;SDS011;57084;52.046;5.632;2022-10-19T03:40:00;5.0;;;1.7;;
69404;SDS011;57084;52.046;5.632;2022-10-19T03:41:00;5.0;;;1.7;;
69404;SDS011;57084;52.046;5.632;2022-10-19T03:42:00;5.0;;;1.7;;
69404;SDS011;57084;52.046;5.632;2022-10-19T03:43:00;5.0;;;1.7;;
69404;SDS011;57084;52.046;5.632;2022-10-19T03:44:00;7.0;;;1.8;;
69404;SDS011;57084;52.046;5.632;2022-10-19T03:45:01;7.0;;;1.8;;
69404;SDS011;57084;52.046;5.632;2022-10-19T03:46:00;7.0;;;1.8;;
69404;SDS011;57084;52.046;5.632;2022-10-19T03:47:00;7.0;;;1.8;;
69404;SDS011;57084;52.046;5.632;2022-10-19T03:48:00;7.0;;;1.8;;
69404;SDS011;57084;52.046;5.632;2022-10-19T03:49:00;7.8;;;1.7;;
69404;SDS011;57084;52.046;5.632;2022-10-19T03:50:00;7.8;;;1.7;;
69404;SDS011;57084;52.046;5.632;2022-10-19T03:51:01;7.8;;;1.7;;
69404;SDS011;57084;52.046;5.632;2022-10-19T03:52:00;7.8;;;1.7;;
69404;SDS011;57084;52.046;5.632;2022-10-19T03:53:00;7.8;;;1.7;;
69404;SDS011;57084;52.046;5.632;2022-10-19T03:54:01;6.5;;;1.8;;
69404;SDS011;57084;52.046;5.632;2022-10-19T03:55:00;6.5;;;1.8;;
69404;SDS011;57084;52.046;5.632;2022-10-19T03:56:01;6.5;;;1.8;;
69404;SDS011;57084;52.046;5.632;2022-10-19T03:57:00;6.5;;;1.8;;
69404;SDS011;57084;52.046;5.632;2022-10-19T03:58:00;6.5;;;1.8;;
69404;SDS011;57084;52.046;5.632;2022-10-19T03:59:03;6.0;;;1.8;;
69404;SDS011;57084;52.046;5.632;2022-10-19T04:00:00;6.0;;;1.8;;
69404;SDS011;57084;52.046;5.632;2022-10-19T04:01:00;6.0;;;1.8;;
69404;SDS011;57084;52.046;5.632;2022-10-19T04:02:00;6.0;;;1.8;;
69404;SDS011;57084;52.046;5.632;2022-10-19T04:03:00;6.0;;;1.8;;
69404;SDS011;57084;52.046;5.632;2022-10-19T04:04:01;5.4;;;2.0;;
69404;SDS011;57084;52.046;5.632;2022-10-19T04:05:00;5.4;;;2.0;;
69404;SDS011;57084;52.046;5.632;2022-10-19T04:06:00;5.4;;;2.0;;
69404;SDS011;57084;52.046;5.632;2022-10-19T04:07:00;5.4;;;2.0;;
69404;SDS011;57084;52.046;5.632;2022-10-19T04:08:00;5.4;;;2.0;;
69404;SDS011;57084;52.046;5.632;2022-10-19T04:09:00;8.8;;;2.6;;
69404;SDS011;57084;52.046;5.632;2022-10-19T04:10:00;8.8;;;2.6;;
69404;SDS011;57084;52.046;5.632;2022-10-19T04:11:00;8.8;;;2.6;;
69404;SDS011;57084;52.046;5.632;2022-10-19T04:12:00;8.8;;;2.6;;
69404;SDS011;57084;52.046;5.632;2022-10-19T04:13:00;8.8;;;2.6;;
69404;SDS011;57084;52.046;5.632;2022-10-19T04:14:00;7.5;;;2.6;;
69404;SDS011;57084;52.046;5.632;2022-10-19T04:15:00;7.5;;;2.6;;
69404;SDS011;57084;52.046;5.632;2022-10-19T04:16:00;7.5;;;2.6;;
69404;SDS011;57084;52.046;5.632;2022-10-19T04:17:00;7.5;;;2.6;;
69404;SDS011;57084;52.046;5.632;2022-10-19T04:18:00;7.5;;;2.6;;
69404;SDS011;57084;52.046;5.632;2022-10-19T04:19:00;7.1;;;2.6;;
69404;SDS011;57084;52.046;5.632;2022-10-19T04:20:00;7.1;;;2.6;;
69404;SDS011;57084;52.046;5.632;2022-10-19T04:21:02;7.1;;;2.6;;
69404;SDS011;57084;52.046;5.632;2022-10-19T04:22:00;7.1;;;2.6;;
69404;SDS011;57084;52.046;5.632;2022-10-19T04:23:00;7.1;;;2.6;;
69404;SDS011;57084;52.046;5.632;2022-10-19T04:24:01;9.4;;;1.9;;
69404;SDS011;57084;52.046;5.632;2022-10-19T04:25:00;9.4;;;1.9;;
69404;SDS011;57084;52.046;5.632;2022-10-19T04:26:01;9.4;;;1.9;;
69404;SDS011;57084;52.046;5.632;2022-10-19T04:27:00;9.4;;;1.9;;
69404;SDS011;57084;52.046;5.632;2022-10-19T04:28:00;9.4;;;1.9;;
69404;SDS011;57084;52.046;5.632;2022-10-19T04:29:00;4.8;;;1.9;;
69404;SDS011;57084;52.046;5.632;2022-10-19T04:30:00;4.8;;;1.9;;
69404;SDS011;57084;52.046;5.632;2022-10-19T04:31:01;4.8;;;1.9;;
69404;SDS011;57084;52.046;5.632;2022-10-19T04:32:00;4.8;;;1.9;;
69404;SDS011;57084;52.046;5.632;2022-10-19T04:33:00;4.8;;;1.9;;
69404;SDS011;57084;52.046;5.632;2022-10-19T04:34:00;8.7;;;1.8;;
69404;SDS011;57084;52.046;5.632;2022-10-19T04:35:00;8.7;;;1.8;;
69404;SDS011;57084;52.046;5.632;2022-10-19T04:36:01;8.7;;;1.8;;
69404;SDS011;57084;52.046;5.632;2022-10-19T04:37:00;8.7;;;1.8;;
69404;SDS011;57084;52.046;5.632;2022-10-19T04:38:00;8.7;;;1.8;;
69404;SDS011;57084;52.046;5.632;2022-10-19T04:39:00;4.9;;;1.7;;
69404;SDS011;57084;52.046;5.632;2022-10-19T04:40:00;4.9;;;1.7;;
69404;SDS011;57084;52.046;5.632;2022-10-19T04:41:00;4.9;;;1.7;;
69404;SDS011;57084;52.046;5.632;2022-10-19T04:42:00;4.9;;;1.7;;
69404;SDS011;57084;52.046;5.632;2022-10-19T04:43:00;4.9;;;1.7;;
69404;SDS011;57084;52.046;5.632;2022-10-19T04:44:02;4.9;;;1.7;;
69404;SDS011;57084;52.046;5.632;2022-10-19T04:45:00;4.1;;;1.5;;
69404;SDS011;57084;52.046;5.632;2022-10-19T04:46:02;4.1;;;1.5;;
69404;SDS011;57084;52.046;5.632;2022-10-19T04:47:00;4.1;;;1.5;;
69404;SDS011;57084;52.046;5.632;2022-10-19T04:48:00;4.1;;;1.5;;
69404;SDS011;57084;52.046;5.632;2022-10-19T04:49:00;4.1;;;1.5;;
69404;SDS011;57084;52.046;5.632;2022-10-19T04:50:00;5.7;;;1.8;;
69404;SDS011;57084;52.046;5.632;2022-10-19T04:51:00;5.7;;;1.8;;
69404;SDS011;57084;52.046;5.632;2022-10-19T04:52:00;5.7;;;1.8;;
69404;SDS011;57084;52.046;5.632;2022-10-19T04:53:00;5.7;;;1.8;;
69404;SDS011;57084;52.046;5.632;2022-10-19T04:54:01;5.7;;;1.8;;
69404;SDS011;57084;52.046;5.632;2022-10-19T04:55:00;6.0;;;2.0;;
69404;SDS011;57084;52.046;5.632;2022-10-19T04:56:03;6.0;;;2.0;;
69404;SDS011;57084;52.046;5.632;2022-10-19T04:57:00;6.0;;;2.0;;
69404;SDS011;57084;52.046;5.632;2022-10-19T04:58:00;6.0;;;2.0;;
69404;SDS011;57084;52.046;5.632;2022-10-19T04:59:00;6.0;;;2.0;;
69404;SDS011;57084;52.046;5.632;2022-10-19T05:00:00;4.9;;;1.9;;
69404;SDS011;57084;52.046;5.632;2022-10-19T05:01:05;4.9;;;1.9;;
69404;SDS011;57084;52.046;5.632;2022-10-19T05:02:00;4.9;;;1.9;;
69404;SDS011;57084;52.046;5.632;2022-10-19T05:03:00;4.9;;;1.9;;
69404;SDS011;57084;52.046;5.632;2022-10-19T05:04:01;4.9;;;1.9;;
69404;SDS011;57084;52.046;5.632;2022-10-19T05:05:00;4.5;;;2.0;;
69404;SDS011;57084;52.046;5.632;2022-10-19T05:06:00;4.5;;;2.0;;
69404;SDS011;57084;52.046;5.632;2022-10-19T05:07:00;4.5;;;2.0;;
69404;SDS011;57084;52.046;5.632;2022-10-19T05:08:00;4.5;;;2.0;;
69404;SDS011;57084;52.046;5.632;2022-10-19T05:09:00;4.5;;;2.0;;
69404;SDS011;57084;52.046;5.632;2022-10-19T05:10:00;7.4;;;2.1;;
69404;SDS011;57084;52.046;5.632;2022-10-19T05:11:01;7.4;;;2.1;;
69404;SDS011;57084;52.046;5.632;2022-10-19T05:12:00;7.4;;;2.1;;
69404;SDS011;57084;52.046;5.632;2022-10-19T05:13:00;7.4;;;2.1;;
69404;SDS011;57084;52.046;5.632;2022-10-19T05:14:00;7.4;;;2.1;;
69404;SDS011;57084;52.046;5.632;2022-10-19T05:15:00;7.2;;;1.8;;
69404;SDS011;57084;52.046;5.632;2022-10-19T05:16:01;7.2;;;1.8;;
69404;SDS011;57084;52.046;5.632;2022-10-19T05:17:00;7.2;;;1.8;;
69404;SDS011;57084;52.046;5.632;2022-10-19T05:18:00;7.2;;;1.8;;
69404;SDS011;57084;52.046;5.632;2022-10-19T05:19:00;7.2;;;1.8;;
69404;SDS011;57084;52.046;5.632;2022-10-19T05:20:00;14.4;;;2.0;;
69404;SDS011;57084;52.046;5.632;2022-10-19T05:21:01;14.4;;;2.0;;
69404;SDS011;57084;52.046;5.632;2022-10-19T05:22:00;14.4;;;2.0;;
69404;SDS011;57084;52.046;5.632;2022-10-19T05:23:00;14.4;;;2.0;;
69404;SDS011;57084;52.046;5.632;2022-10-19T05:24:00;14.4;;;2.0;;
69404;SDS011;57084;52.046;5.632;2022-10-19T05:25:00;7.7;;;2.1;;
69404;SDS011;57084;52.046;5.632;2022-10-19T05:26:00;7.7;;;2.1;;
69404;SDS011;57084;52.046;5.632;2022-10-19T05:27:00;7.7;;;2.1;;
69404;SDS011;57084;52.046;5.632;2022-10-19T05:28:00;7.7;;;2.1;;
69404;SDS011;57084;52.046;5.632;2022-10-19T05:29:00;7.7;;;2.1;;
69404;SDS011;57084;52.046;5.632;2022-10-19T05:30:00;5.7;;;1.9;;
69404;SDS011;57084;52.046;5.632;2022-10-19T05:31:04;5.7;;;1.9;;
69404;SDS011;57084;52.046;5.632;2022-10-19T05:32:00;5.7;;;1.9;;
69404;SDS011;57084;52.046;5.632;2022-10-19T05:33:00;5.7;;;1.9;;
69404;SDS011;57084;52.046;5.632;2022-10-19T05:34:00;5.7;;;1.9;;
69404;SDS011;57084;52.046;5.632;2022-10-19T05:35:00;5.8;;;2.2;;
69404;SDS011;57084;52.046;5.632;2022-10-19T05:36:09;5.8;;;2.2;;
69404;SDS011;57084;52.046;5.632;2022-10-19T05:37:00;5.8;;;2.2;;
69404;SDS011;57084;52.046;5.632;2022-10-19T05:38:00;5.8;;;2.2;;
69404;SDS011;57084;52.046;5.632;2022-10-19T05:39:02;5.8;;;2.2;;
69404;SDS011;57084;52.046;5.632;2022-10-19T05:40:00;5.1;;;2.0;;
69404;SDS011;57084;52.046;5.632;2022-10-19T05:41:00;5.1;;;2.0;;
69404;SDS011;57084;52.046;5.632;2022-10-19T05:42:00;5.1;;;2.0;;
69404;SDS011;57084;52.046;5.632;2022-10-19T05:43:00;5.1;;;2.0;;
69404;SDS011;57084;52.046;5.632;2022-10-19T05:44:01;5.1;;;2.0;;
69404;SDS011;57084;52.046;5.632;2022-10-19T05:45:00;4.7;;;1.9;;
69404;SDS011;57084;52.046;5.632;2022-10-19T05:46:03;4.7;;;1.9;;
69404;SDS011;57084;52.046;5.632;2022-10-19T05:47:00;4.7;;;1.9;;
69404;SDS011;57084;52.046;5.632;2022-10-19T05:48:00;4.7;;;1.9;;
69404;SDS011;57084;52.046;5.632;2022-10-19T05:49:00;4.7;;;1.9;;
69404;SDS011;57084;52.046;5.632;2022-10-19T05:50:00;5.7;;;2.1;;
69404;SDS011;57084;52.046;5.632;2022-10-19T05:51:01;5.7;;;2.1;;
69404;SDS011;57084;52.046;5.632;2022-10-19T05:52:00;5.7;;;2.1;;
69404;SDS011;57084;52.046;5.632;2022-10-19T05:53:00;5.7;;;2.1;;
69404;SDS011;57084;52.046;5.632;2022-10-19T05:54:00;5.7;;;2.1;;
69404;SDS011;57084;52.046;5.632;2022-10-19T05:55:00;5.9;;;2.1;;
69404;SDS011;57084;52.046;5.632;2022-10-19T05:56:00;5.9;;;2.1;;
69404;SDS011;57084;52.046;5.632;2022-10-19T05:57:00;5.9;;;2.1;;
69404;SDS011;57084;52.046;5.632;2022-10-19T05:58:00;5.9;;;2.1;;
69404;SDS011;57084;52.046;5.632;2022-10-19T05:59:03;5.9;;;2.1;;
69404;SDS011;57084;52.046;5.632;2022-10-19T06:00:00;4.7;;;2.1;;
69404;SDS011;57084;52.046;5.632;2022-10-19T06:01:00;4.7;;;2.1;;
69404;SDS011;57084;52.046;5.632;2022-10-19T06:02:00;4.7;;;2.1;;
69404;SDS011;57084;52.046;5.632;2022-10-19T06:03:00;4.7;;;2.1;;
69404;SDS011;57084;52.046;5.632;2022-10-19T06:04:01;4.7;;;2.1;;
69404;SDS011;57084;52.046;5.632;2022-10-19T06:05:00;9.8;;;2.1;;
69404;SDS011;57084;52.046;5.632;2022-10-19T06:06:01;9.8;;;2.1;;
69404;SDS011;57084;52.046;5.632;2022-10-19T06:07:00;9.8;;;2.1;;
69404;SDS011;57084;52.046;5.632;2022-10-19T06:08:00;9.8;;;2.1;;
69404;SDS011;57084;52.046;5.632;2022-10-19T06:09:00;9.8;;;2.1;;
69404;SDS011;57084;52.046;5.632;2022-10-19T06:10:00;8.7;;;2.8;;
69404;SDS011;57084;52.046;5.632;2022-10-19T06:11:04;8.7;;;2.8;;